(°C)
13°
14°
16°
16°
16°
16°
15°
(°C)
10°
11°
12°
12°
11°
11°
Z
Z
Z
Z
Z
ZJZ
ZJZ
(km/h)
8-20
8-20
7-18
7-17
7-16
8-16
8-15
(mm)
0
0
0
0
0
0
0
(%)
2
3
4
5
5
4
4

Výška Slnka nad obzorom

/ 31.6°
sun-icon
UV 3
07:06
17:16
Ubúdajúci kosáčik (282°)
00:37
13:51

Správy METAR pre lokalitu Južná Karolína (KCUB)

Čas Podmienky Teplota/
Rosný bod
Vietor Viditeľnosť Počasie Oblaky Tlak Zmeniť Nespracované
VFR 10.6°C / -1.1°C 280º 3kt >10km - Clear 1016 - KCUB 281453Z AUTO 28003KT 10SM CLR 11/M01 A3001 RMK AO2 SLP163 T01061011 52002
VFR 8.3°C / 0°C 240º 4kt >10km - Clear 1016 - KCUB 281353Z AUTO 24004KT 10SM CLR 08/00 A3002 RMK AO2 SLP164 T00830000
VFR 2.8°C / 0.6°C variable 0kt 9700m Mist Vertical Visibility of 0ft. 1016 - KCUB 281253Z AUTO 00000KT 6SM BR CLR 03/01 A3001 RMK AO2 SLP161 T00280006
VFR 2.8°C / -0.6°C variable 0kt >10km - Clear 1016 - KCUB 281153Z AUTO 00000KT 10SM CLR 03/M01 A3001 RMK AO2 SLP162 T00281006 10056 20028 53004
VFR 2.8°C / 0°C variable 0kt >10km - Clear 1015 - KCUB 281053Z AUTO 00000KT 9SM CLR 03/00 A2999 RMK AO2 SLP154 T00280000
VFR 3.3°C / 0°C variable 0kt >10km - Clear 1015 - KCUB 280953Z AUTO 00000KT 10SM CLR 03/00 A2999 RMK AO2 SLP155 T00330000
VFR 3.9°C / 0°C variable 0kt >10km - Clear 1015 - KCUB 280853Z AUTO 00000KT 10SM CLR 04/00 A3000 RMK AO2 SLP157 T00390000 56010
VFR 5°C / 0.6°C variable 0kt >10km - Clear 1016 - KCUB 280753Z AUTO 00000KT 10SM CLR 05/01 A3001 RMK AO2 SLP161 T00500006
VFR 5°C / 0.6°C variable 0kt 9700m Haze Vertical Visibility of 0ft. 1016 - KCUB 280653Z AUTO 00000KT 6SM HZ CLR 05/01 A3001 RMK AO2 SLP162 T00500006
VFR 5°C / -0.6°C variable 0kt >10km - Clear 1016 - KCUB 280553Z AUTO 00000KT 10SM CLR 05/M01 A3003 RMK AO2 SLP168 T00501006 10083 20044 58011
VFR 4.4°C / -0.6°C variable 0kt >10km - Clear 1017 - KCUB 280453Z AUTO 00000KT 7SM CLR 04/M01 A3004 RMK AO2 SLP172 T00441006 401561011
VFR 4.4°C / -0.6°C variable 0kt >10km - Clear 1017 - KCUB 280353Z AUTO 00000KT 7SM CLR 04/M01 A3005 RMK AO2 SLP176 T00441006
VFR 5°C / -1.1°C variable 0kt >10km - Clear 1017 - KCUB 280253Z AUTO 00000KT 9SM CLR 05/M01 A3006 RMK AO2 SLP179 T00501011 58003
VFR 6.1°C / -1.1°C variable 0kt >10km - Clear 1018 - KCUB 280153Z AUTO 00000KT 10SM CLR 06/M01 A3007 RMK AO2 SLP182 T00611011
VFR 7.2°C / -1.1°C variable 0kt >10km - Clear 1018 - KCUB 280053Z AUTO 00000KT 10SM CLR 07/M01 A3007 RMK AO2 SLP183 T00721011
VFR 8.3°C / -1.7°C variable 0kt >10km - Clear 1018 - KCUB 272353Z AUTO 00000KT 10SM CLR 08/M02 A3007 RMK AO2 SLP183 T00831017 10156 20083 53003
VFR 12.2°C / -5°C 190º 3kt >10km - Clear 1018 - KCUB 272253Z AUTO 19003KT 10SM CLR 12/M05 A3007 RMK AO2 SLP181 T01221050
VFR 14.4°C / -6.7°C 220º 4kt >10km - Clear 1017 - KCUB 272153Z AUTO 22004KT 10SM CLR 14/M07 A3006 RMK AO2 SLP178 T01441067
VFR 15.6°C / -7.8°C 230º 5kt >10km - Clear 1017 - KCUB 272053Z AUTO 23005KT 10SM CLR 16/M08 A3006 RMK AO2 SLP179 T01561078 56018
VFR 15°C / -8.3°C variable 4kt >10km - Clear 1018 - KCUB 271953Z AUTO VRB04KT 10SM CLR 15/M08 A3006 RMK AO2 SLP180 T01501083
VFR 13.9°C / -8.9°C 180º 5kt >10km - Clear 1018 - KCUB 271853Z AUTO 18005KT 10SM CLR 14/M09 A3008 RMK AO2 SLP187 T01391089
VFR 12.2°C / -8.9°C variable 3kt >10km - Clear 1019 - KCUB 271753Z AUTO VRB03KT 10SM CLR 12/M09 A3012 RMK AO2 SLP198 T01221089 10128 21011 58023
VFR 11.1°C / -6.1°C 190º 5kt >10km - Clear 1021 - KCUB 271653Z AUTO 19005KT 10SM CLR 11/M06 A3015 RMK AO2 SLP210 T01111061
VFR 10°C / -4.4°C variable 4kt >10km - Clear 1021 - KCUB 271553Z AUTO VRB04KT 10SM CLR 10/M04 A3018 RMK AO2 SLP218 T01001044

VFR

10.6°C / -1.1°C

[Viac]
Vietor 280º 3kt
Viditeľnosť >10km
Počasie -
Oblaky Clear
Tlak 1016
Zmeniť -
Nespracované KCUB 281453Z AUTO 28003KT 10SM CLR 11/M01 A3001 RMK AO2 SLP163 T01061011 52002

VFR

8.3°C / 0°C

[Viac]
Vietor 240º 4kt
Viditeľnosť >10km
Počasie -
Oblaky Clear
Tlak 1016
Zmeniť -
Nespracované KCUB 281353Z AUTO 24004KT 10SM CLR 08/00 A3002 RMK AO2 SLP164 T00830000

VFR

2.8°C / 0.6°C

[Viac]
Vietor variable 0kt
Viditeľnosť 9700m
Počasie Mist
Oblaky Vertical Visibility of 0ft.
Tlak 1016
Zmeniť -
Nespracované KCUB 281253Z AUTO 00000KT 6SM BR CLR 03/01 A3001 RMK AO2 SLP161 T00280006

VFR

2.8°C / -0.6°C

[Viac]
Vietor variable 0kt
Viditeľnosť >10km
Počasie -
Oblaky Clear
Tlak 1016
Zmeniť -
Nespracované KCUB 281153Z AUTO 00000KT 10SM CLR 03/M01 A3001 RMK AO2 SLP162 T00281006 10056 20028 53004

VFR

2.8°C / 0°C

[Viac]
Vietor variable 0kt
Viditeľnosť >10km
Počasie -
Oblaky Clear
Tlak 1015
Zmeniť -
Nespracované KCUB 281053Z AUTO 00000KT 9SM CLR 03/00 A2999 RMK AO2 SLP154 T00280000

VFR

3.3°C / 0°C

[Viac]
Vietor variable 0kt
Viditeľnosť >10km
Počasie -
Oblaky Clear
Tlak 1015
Zmeniť -
Nespracované KCUB 280953Z AUTO 00000KT 10SM CLR 03/00 A2999 RMK AO2 SLP155 T00330000

VFR

3.9°C / 0°C

[Viac]
Vietor variable 0kt
Viditeľnosť >10km
Počasie -
Oblaky Clear
Tlak 1015
Zmeniť -
Nespracované KCUB 280853Z AUTO 00000KT 10SM CLR 04/00 A3000 RMK AO2 SLP157 T00390000 56010

VFR

5°C / 0.6°C

[Viac]
Vietor variable 0kt
Viditeľnosť >10km
Počasie -
Oblaky Clear
Tlak 1016
Zmeniť -
Nespracované KCUB 280753Z AUTO 00000KT 10SM CLR 05/01 A3001 RMK AO2 SLP161 T00500006

VFR

5°C / 0.6°C

[Viac]
Vietor variable 0kt
Viditeľnosť 9700m
Počasie Haze
Oblaky Vertical Visibility of 0ft.
Tlak 1016
Zmeniť -
Nespracované KCUB 280653Z AUTO 00000KT 6SM HZ CLR 05/01 A3001 RMK AO2 SLP162 T00500006

VFR

5°C / -0.6°C

[Viac]
Vietor variable 0kt
Viditeľnosť >10km
Počasie -
Oblaky Clear
Tlak 1016
Zmeniť -
Nespracované KCUB 280553Z AUTO 00000KT 10SM CLR 05/M01 A3003 RMK AO2 SLP168 T00501006 10083 20044 58011

VFR

4.4°C / -0.6°C

[Viac]
Vietor variable 0kt
Viditeľnosť >10km
Počasie -
Oblaky Clear
Tlak 1017
Zmeniť -
Nespracované KCUB 280453Z AUTO 00000KT 7SM CLR 04/M01 A3004 RMK AO2 SLP172 T00441006 401561011

VFR

4.4°C / -0.6°C

[Viac]
Vietor variable 0kt
Viditeľnosť >10km
Počasie -
Oblaky Clear
Tlak 1017
Zmeniť -
Nespracované KCUB 280353Z AUTO 00000KT 7SM CLR 04/M01 A3005 RMK AO2 SLP176 T00441006

VFR

5°C / -1.1°C

[Viac]
Vietor variable 0kt
Viditeľnosť >10km
Počasie -
Oblaky Clear
Tlak 1017
Zmeniť -
Nespracované KCUB 280253Z AUTO 00000KT 9SM CLR 05/M01 A3006 RMK AO2 SLP179 T00501011 58003

VFR

6.1°C / -1.1°C

[Viac]
Vietor variable 0kt
Viditeľnosť >10km
Počasie -
Oblaky Clear
Tlak 1018
Zmeniť -
Nespracované KCUB 280153Z AUTO 00000KT 10SM CLR 06/M01 A3007 RMK AO2 SLP182 T00611011

VFR

7.2°C / -1.1°C

[Viac]
Vietor variable 0kt
Viditeľnosť >10km
Počasie -
Oblaky Clear
Tlak 1018
Zmeniť -
Nespracované KCUB 280053Z AUTO 00000KT 10SM CLR 07/M01 A3007 RMK AO2 SLP183 T00721011

VFR

8.3°C / -1.7°C

[Viac]
Vietor variable 0kt
Viditeľnosť >10km
Počasie -
Oblaky Clear
Tlak 1018
Zmeniť -
Nespracované KCUB 272353Z AUTO 00000KT 10SM CLR 08/M02 A3007 RMK AO2 SLP183 T00831017 10156 20083 53003

VFR

12.2°C / -5°C

[Viac]
Vietor 190º 3kt
Viditeľnosť >10km
Počasie -
Oblaky Clear
Tlak 1018
Zmeniť -
Nespracované KCUB 272253Z AUTO 19003KT 10SM CLR 12/M05 A3007 RMK AO2 SLP181 T01221050

VFR

14.4°C / -6.7°C

[Viac]
Vietor 220º 4kt
Viditeľnosť >10km
Počasie -
Oblaky Clear
Tlak 1017
Zmeniť -
Nespracované KCUB 272153Z AUTO 22004KT 10SM CLR 14/M07 A3006 RMK AO2 SLP178 T01441067

VFR

15.6°C / -7.8°C

[Viac]
Vietor 230º 5kt
Viditeľnosť >10km
Počasie -
Oblaky Clear
Tlak 1017
Zmeniť -
Nespracované KCUB 272053Z AUTO 23005KT 10SM CLR 16/M08 A3006 RMK AO2 SLP179 T01561078 56018

VFR

15°C / -8.3°C

[Viac]
Vietor variable 4kt
Viditeľnosť >10km
Počasie -
Oblaky Clear
Tlak 1018
Zmeniť -
Nespracované KCUB 271953Z AUTO VRB04KT 10SM CLR 15/M08 A3006 RMK AO2 SLP180 T01501083

VFR

13.9°C / -8.9°C

[Viac]
Vietor 180º 5kt
Viditeľnosť >10km
Počasie -
Oblaky Clear
Tlak 1018
Zmeniť -
Nespracované KCUB 271853Z AUTO 18005KT 10SM CLR 14/M09 A3008 RMK AO2 SLP187 T01391089

VFR

12.2°C / -8.9°C

[Viac]
Vietor variable 3kt
Viditeľnosť >10km
Počasie -
Oblaky Clear
Tlak 1019
Zmeniť -
Nespracované KCUB 271753Z AUTO VRB03KT 10SM CLR 12/M09 A3012 RMK AO2 SLP198 T01221089 10128 21011 58023

VFR

11.1°C / -6.1°C

[Viac]
Vietor 190º 5kt
Viditeľnosť >10km
Počasie -
Oblaky Clear
Tlak 1021
Zmeniť -
Nespracované KCUB 271653Z AUTO 19005KT 10SM CLR 11/M06 A3015 RMK AO2 SLP210 T01111061

VFR

10°C / -4.4°C

[Viac]
Vietor variable 4kt
Viditeľnosť >10km
Počasie -
Oblaky Clear
Tlak 1021
Zmeniť -
Nespracované KCUB 271553Z AUTO VRB04KT 10SM CLR 10/M04 A3018 RMK AO2 SLP218 T01001044

Správy TAF pre lokalitu Južná Karolína (KCUB)

From till


From till Wind 240º 4kt. Visibility 10km or more. Scattered Clouds 20000ft.
From till Wind 280º 4kt. Visibility 10km or more. Scattered Clouds 25000ft.

Nespracované: KCUB 281438Z 2815/2912 24004KT P6SM SCT200 FM290300 28004KT P6SM SCT250

Aktuálne satelitné snímky pre lokalitu Južná Karolína, Spojené štáty americké

Značka polohy je umiestnená naJužná Karolína. [Viac]

Satelitné snímky zhotovované v reálnom čase využívajú viditeľné svetlo počas dňa a infračervené žiarenie počas noci. Vzhľadom na to, že infračervené žiarenie zisťuje teplotné rozdiely, snímka v noci nie je tmavá. Nízke oblaky a hmlu je, žiaľ, ťažké odlíšiť od prízemných teplôt, preto môžu byť počas noci takmer neviditeľné. Meteosat satelitné snímky pre Európu sú aktualizované v reálnom čase každých 5 minút. Snímky z GOES-16/GOES-17 (Severná a Južná Amerika) a Himawari (Ázia) sú aktualizované každých 10 minút.

Radar a krátkodobá predpoveď zrážok pre Južná Karolína

Mrholenie
Slabý
Mierne
Ťažké
Veľmi ťažké
Krúpy

Značka polohy je umiestnená na Južná Karolína. Táto animácia ukazuje zrážky pozorované radarom za poslednú hodinu a tiež 1h predpoveď. Mrholenie alebo slabé sneženie môže byť pre radar neviditeľné. Intenzita zrážok je farebne označená od svetlomodrej po oranžovú.